createdAt,value
2023-03-08T00:00:00.929Z,0.44
2023-03-08T00:04:55.786Z,0.46
2023-03-08T00:09:47.410Z,0.44
2023-03-08T00:14:39.232Z,0.41
2023-03-08T00:19:30.995Z,0.42
2023-03-08T00:24:23.509Z,0.40
2023-03-08T00:29:15.245Z,0.38
2023-03-08T00:34:07.010Z,0.39
2023-03-08T00:38:58.623Z,0.37
2023-03-08T00:43:50.446Z,0.34
2023-03-08T00:48:42.253Z,0.35
2023-03-08T00:53:34.404Z,0.35
2023-03-08T00:58:28.105Z,0.34
2023-03-08T01:03:22.131Z,0.35
2023-03-08T01:08:15.069Z,0.33
2023-03-08T01:13:08.360Z,0.33
2023-03-08T01:17:59.932Z,0.32
2023-03-08T01:22:52.747Z,0.31
2023-03-08T01:27:44.403Z,0.29
2023-03-08T01:32:36.041Z,0.27
2023-03-08T01:37:27.612Z,0.25
2023-03-08T01:42:19.189Z,0.24
2023-03-08T01:47:19.314Z,0.20
2023-03-08T01:52:26.090Z,0.14
2023-03-08T01:57:38.450Z,0.10
2023-03-08T02:02:36.917Z,0.05
2023-03-08T02:07:28.569Z,0.00
2023-03-08T02:12:21.350Z,-0.02
2023-03-08T02:17:13.155Z,-0.07
2023-03-08T02:22:10.118Z,-0.08
2023-03-08T02:27:06.701Z,-0.10
2023-03-08T02:31:58.264Z,-0.09
2023-03-08T02:36:49.926Z,-0.09
2023-03-08T02:41:41.498Z,-0.08
2023-03-08T02:46:34.759Z,-0.07
2023-03-08T02:51:26.331Z,-0.06
2023-03-08T02:56:18.065Z,-0.08
2023-03-08T03:01:13.313Z,-0.07
2023-03-08T03:06:05.231Z,-0.08
2023-03-08T03:10:56.901Z,-0.09
2023-03-08T03:15:48.619Z,-0.07
2023-03-08T03:20:40.277Z,-0.06
2023-03-08T03:25:31.963Z,-0.07
2023-03-08T03:30:23.629Z,-0.07
2023-03-08T03:35:15.420Z,-0.07
2023-03-08T03:40:07.826Z,-0.10
2023-03-08T03:44:59.389Z,-0.16
2023-03-08T03:49:51.088Z,-0.15
2023-03-08T03:54:42.687Z,-0.18
2023-03-08T03:59:34.461Z,-0.18
2023-03-08T04:04:26.098Z,-0.17
2023-03-08T04:09:19.356Z,-0.20
2023-03-08T04:14:11.169Z,-0.23
2023-03-08T04:19:05.778Z,-0.25
2023-03-08T04:24:00.430Z,-0.26
2023-03-08T04:28:52.848Z,-0.27
2023-03-08T04:33:45.550Z,-0.29
2023-03-08T04:38:37.293Z,-0.28
2023-03-08T04:43:31.478Z,-0.28
2023-03-08T04:48:26.362Z,-0.26
2023-03-08T04:53:18.140Z,-0.28
2023-03-08T04:58:09.908Z,-0.28
2023-03-08T05:03:01.552Z,-0.26
2023-03-08T05:07:55.973Z,-0.25
2023-03-08T05:12:47.534Z,-0.24
2023-03-08T05:17:39.155Z,-0.23
2023-03-08T05:22:30.932Z,-0.21
2023-03-08T05:27:22.562Z,-0.22
2023-03-08T05:32:14.310Z,-0.20
2023-03-08T05:37:05.960Z,-0.20
2023-03-08T05:41:58.032Z,-0.20
2023-03-08T05:46:53.592Z,-0.20
2023-03-08T05:51:45.365Z,-0.18
2023-03-08T05:56:36.947Z,-0.16
2023-03-08T06:01:28.962Z,-0.14
2023-03-08T06:06:22.477Z,-0.13
2023-03-08T06:11:14.512Z,-0.14
2023-03-08T06:16:07.206Z,-0.13
2023-03-08T06:21:02.854Z,-0.13
2023-03-08T06:25:54.619Z,-0.12
2023-03-08T06:30:49.432Z,-0.12
2023-03-08T06:35:41.201Z,-0.14
2023-03-08T06:40:32.842Z,-0.15
2023-03-08T06:45:24.519Z,-0.14
2023-03-08T06:50:16.808Z,-0.13
2023-03-08T06:55:09.227Z,-0.10
2023-03-08T07:00:01.405Z,-0.08
2023-03-08T07:04:53.001Z,-0.07
2023-03-08T07:09:44.589Z,-0.05
2023-03-08T07:14:36.312Z,-0.03
2023-03-08T07:19:27.957Z,-0.04
2023-03-08T07:24:19.679Z,0.01
2023-03-08T07:29:11.274Z,0.04
2023-03-08T07:34:04.147Z,0.11
2023-03-08T07:38:55.953Z,0.18
2023-03-08T07:43:47.700Z,0.27
2023-03-08T07:48:39.385Z,0.34
2023-03-08T07:53:31.342Z,0.40
2023-03-08T07:58:23.000Z,0.43
2023-03-08T08:03:14.605Z,0.47
2023-03-08T08:08:06.226Z,0.49
2023-03-08T08:12:58.112Z,0.52
2023-03-08T08:17:49.899Z,0.56
2023-03-08T08:22:41.582Z,0.62
2023-03-08T08:27:33.977Z,0.67
2023-03-08T08:32:26.413Z,0.70
2023-03-08T08:37:18.309Z,0.75
2023-03-08T08:42:09.980Z,0.79
2023-03-08T08:47:01.542Z,0.83
2023-03-08T08:51:53.509Z,0.84
2023-03-08T08:56:45.320Z,0.84
2023-03-08T09:01:40.003Z,0.87
2023-03-08T09:06:31.662Z,0.86
2023-03-08T09:11:24.768Z,0.86
2023-03-08T09:16:24.026Z,0.88
2023-03-08T09:21:16.613Z,0.91
2023-03-08T09:26:09.025Z,0.94
2023-03-08T09:31:03.127Z,0.97
2023-03-08T09:35:59.025Z,1.02
2023-03-08T09:41:13.484Z,1.09
2023-03-08T09:46:05.494Z,1.21
2023-03-08T09:51:02.539Z,1.31
2023-03-08T09:56:15.958Z,1.39
2023-03-08T10:01:16.308Z,1.48
2023-03-08T10:06:34.630Z,1.51
2023-03-08T10:11:36.361Z,1.46
2023-03-08T10:16:38.266Z,1.54
2023-03-08T10:21:32.821Z,1.58
2023-03-08T10:26:26.795Z,1.55
2023-03-08T10:31:20.108Z,1.53
2023-03-08T10:36:21.390Z,1.60
2023-03-08T10:41:16.460Z,1.71
2023-03-08T10:46:17.603Z,1.78
2023-03-08T10:51:22.786Z,1.84
2023-03-08T10:56:25.689Z,1.87
2023-03-08T11:01:51.254Z,1.94
2023-03-08T11:06:43.534Z,2.05
2023-03-08T11:11:42.406Z,2.08
2023-03-08T11:16:33.919Z,2.11
2023-03-08T11:21:52.499Z,2.11
2023-03-08T11:27:02.200Z,2.05
2023-03-08T11:31:56.437Z,2.07
2023-03-08T11:37:02.839Z,2.12
2023-03-08T11:42:03.384Z,2.24
2023-03-08T11:47:00.605Z,2.14
2023-03-08T11:52:06.904Z,2.03
2023-03-08T11:57:02.355Z,1.94
2023-03-08T12:02:05.436Z,1.82
2023-03-08T12:07:02.326Z,1.70
2023-03-08T12:12:05.577Z,1.67
2023-03-08T12:17:20.197Z,1.69
2023-03-08T12:22:34.672Z,1.80
2023-03-08T12:27:50.366Z,1.86
2023-03-08T12:32:43.640Z,1.83
2023-03-08T12:37:35.498Z,1.85
2023-03-08T12:42:33.652Z,1.79
2023-03-08T12:47:25.484Z,1.65
2023-03-08T12:52:20.562Z,1.58
2023-03-08T12:57:21.602Z,1.53
2023-03-08T13:02:30.854Z,1.56
2023-03-08T13:07:32.260Z,1.62
2023-03-08T13:12:27.377Z,1.70
2023-03-08T13:17:31.496Z,1.68
2023-03-08T13:22:46.029Z,1.65
2023-03-08T13:27:43.794Z,1.70
2023-03-08T13:32:35.603Z,1.69
2023-03-08T13:37:32.243Z,1.63
2023-03-08T13:42:25.981Z,1.58
2023-03-08T13:47:23.779Z,1.57
2023-03-08T13:52:19.434Z,1.62
2023-03-08T13:57:27.240Z,1.60
2023-03-08T14:02:27.003Z,1.54
2023-03-08T14:07:30.732Z,1.49
2023-03-08T14:12:27.662Z,1.48
2023-03-08T14:17:27.268Z,1.45
2023-03-08T14:22:36.057Z,1.47
2023-03-08T14:27:39.319Z,1.50
2023-03-08T14:32:32.695Z,1.49
2023-03-08T14:37:26.903Z,1.46
2023-03-08T14:42:26.829Z,1.43
2023-03-08T14:47:23.374Z,1.45
2023-03-08T14:52:20.985Z,1.41
2023-03-08T14:57:19.418Z,1.44
2023-03-08T15:02:11.884Z,1.44
2023-03-08T15:07:04.137Z,1.44
2023-03-08T15:11:59.920Z,1.47
2023-03-08T15:16:53.497Z,1.51
2023-03-08T15:21:45.204Z,1.50
2023-03-08T15:26:36.895Z,1.49
2023-03-08T15:31:28.562Z,1.49
2023-03-08T15:36:20.296Z,1.52
2023-03-08T15:41:13.385Z,1.49
2023-03-08T15:46:05.304Z,1.47
2023-03-08T15:50:58.567Z,1.48
2023-03-08T15:55:50.390Z,1.45
2023-03-08T16:00:42.075Z,1.40
2023-03-08T16:05:33.759Z,1.35
2023-03-08T16:10:26.911Z,1.32
2023-03-08T16:15:19.482Z,1.31
2023-03-08T16:20:12.688Z,1.21
2023-03-08T16:25:06.002Z,1.14
2023-03-08T16:29:57.677Z,1.12
2023-03-08T16:34:51.105Z,1.09
2023-03-08T16:39:42.790Z,1.07
2023-03-08T16:44:34.467Z,1.07
2023-03-08T16:49:28.564Z,1.02
2023-03-08T16:54:20.512Z,0.99
2023-03-08T16:59:16.680Z,0.96
2023-03-08T17:04:11.658Z,0.97
2023-03-08T17:09:04.240Z,0.97
2023-03-08T17:14:05.271Z,0.97
2023-03-08T17:18:59.277Z,0.92
2023-03-08T17:23:53.003Z,0.85
2023-03-08T17:28:45.534Z,0.82
2023-03-08T17:33:37.650Z,0.79
2023-03-08T17:38:29.264Z,0.77
2023-03-08T17:43:21.009Z,0.74
2023-03-08T17:48:12.831Z,0.73
2023-03-08T17:53:04.810Z,0.70
2023-03-08T17:57:56.405Z,0.64
2023-03-08T18:02:48.119Z,0.66
2023-03-08T18:07:41.923Z,0.64
2023-03-08T18:12:33.639Z,0.64
2023-03-08T18:17:25.326Z,0.63
2023-03-08T18:22:17.435Z,0.63
2023-03-08T18:27:09.270Z,0.61
2023-03-08T18:32:02.037Z,0.58
2023-03-08T18:36:55.671Z,0.57
2023-03-08T18:41:47.249Z,0.54
2023-03-08T18:46:39.199Z,0.53
2023-03-08T18:51:32.067Z,0.51
2023-03-08T18:56:25.953Z,0.48
2023-03-08T19:01:17.701Z,0.46
2023-03-08T19:06:10.863Z,0.46
2023-03-08T19:11:14.820Z,0.44
2023-03-08T19:16:07.366Z,0.42
2023-03-08T19:20:59.026Z,0.42
2023-03-08T19:26:09.297Z,0.41
2023-03-08T19:31:00.915Z,0.42
2023-03-08T19:35:52.497Z,0.40
2023-03-08T19:40:45.481Z,0.39
2023-03-08T19:45:37.305Z,0.39
2023-03-08T19:50:28.957Z,0.38
2023-03-08T19:55:20.593Z,0.37
2023-03-08T20:00:13.885Z,0.37
2023-03-08T20:05:05.704Z,0.35
2023-03-08T20:10:02.281Z,0.34
2023-03-08T20:15:02.054Z,0.31
2023-03-08T20:19:53.769Z,0.30
2023-03-08T20:24:45.548Z,0.31
2023-03-08T20:29:37.153Z,0.31
2023-03-08T20:34:28.817Z,0.28
2023-03-08T20:39:22.607Z,0.29
2023-03-08T20:44:14.306Z,0.29
2023-03-08T20:49:05.921Z,0.30
2023-03-08T20:53:58.111Z,0.29
2023-03-08T20:58:50.138Z,0.30
2023-03-08T21:03:41.907Z,0.31
2023-03-08T21:08:33.608Z,0.34
2023-03-08T21:13:25.326Z,0.34
2023-03-08T21:18:16.945Z,0.31
2023-03-08T21:23:08.548Z,0.32
2023-03-08T21:28:00.224Z,0.32
2023-03-08T21:32:51.862Z,0.35
2023-03-08T21:37:43.592Z,0.39
2023-03-08T21:42:35.234Z,0.37
2023-03-08T21:47:26.786Z,0.35
2023-03-08T21:52:18.427Z,0.36
2023-03-08T21:57:10.060Z,0.39
2023-03-08T22:02:01.727Z,0.39
2023-03-08T22:06:55.694Z,0.41
2023-03-08T22:11:47.476Z,0.42
2023-03-08T22:16:42.111Z,0.40
2023-03-08T22:21:33.862Z,0.42
2023-03-08T22:26:27.280Z,0.44
2023-03-08T22:31:22.071Z,0.47
2023-03-08T22:36:16.241Z,0.51
2023-03-08T22:41:16.971Z,0.52
2023-03-08T22:46:17.683Z,0.55
2023-03-08T22:51:11.502Z,0.55
2023-03-08T22:56:03.454Z,0.57
2023-03-08T23:00:55.060Z,0.58
2023-03-08T23:05:46.719Z,0.58
2023-03-08T23:10:38.367Z,0.55
2023-03-08T23:15:30.272Z,0.52
2023-03-08T23:20:22.568Z,0.52
2023-03-08T23:25:14.444Z,0.53
2023-03-08T23:30:08.233Z,0.55
2023-03-08T23:34:59.833Z,0.52
2023-03-08T23:39:51.425Z,0.51
2023-03-08T23:44:43.114Z,0.52
2023-03-08T23:49:34.840Z,0.50
2023-03-08T23:54:26.688Z,0.51
2023-03-08T23:59:22.761Z,0.49
